LFRS
LFRS
LFRS
LFRS
LFRS
LFRS
LFRS
LFRS
LFRS
LFRS
LFRS
LFRS
LFRS
LFRS
LFRS
LFRS
LFRS
LFRS
LFRS
LFRS
LFRS
LFRS
LFRS
LFRS
LFRS
LFRS
LFRS
LFRS
LFRS
LFRS
LFRS
LFRS
LFRS
LFRS
LFRS
LFRS
LFRS
LFRS
LFRS
LFRS
LFRS
LFRS
LFRS
LFRS
LFRS
LFRS
LFRS
LFRS

272100Z
272030Z
272000Z
271930Z
271900Z
271830Z
271800Z
271730Z
271700Z
271630Z
271600Z
271530Z
271500Z
271430Z
271400Z
271330Z
271300Z
271230Z
271200Z
271130Z
271100Z
271030Z
271000Z
270930Z
270900Z
270830Z
270800Z
270730Z
270700Z
270630Z
270600Z
270530Z
270500Z
270430Z
270400Z
270330Z
270300Z
270230Z
270200Z
270130Z
270100Z
270030Z
270000Z
262330Z
262253Z
262230Z
262200Z
262130Z

28003KT 240V310 CAVOK 14/10 Q1019 NOSIG=
29005KT 250V320 CAVOK 15/10 Q1019 NOSIG=
29006KT 9999 FEW043 SCT250 16/12 Q1019 NOSIG=
27006KT 9999 FEW043 SCT250 17/11 Q1018 NOSIG=
26006KT 9999 FEW043 SCT250 18/11 Q1018 NOSIG=
28008KT 9999 FEW043 SCT250 19/11 Q1018 NOSIG=
27010KT 9999 FEW043 20/11 Q1018 NOSIG=
26009KT 230V290 9999 FEW043 20/11 Q1018 NOSIG=
27009KT 9999 FEW043 22/12 Q1018 NOSIG=
27009KT 230V320 9999 FEW043 22/13 Q1018 NOSIG=
27009KT 9999 FEW043 22/14 Q1018 NOSIG=
26006KT 220V290 9999 FEW043 23/14 Q1018 NOSIG=
28006KT 250V310 9999 FEW043 23/14 Q1018 NOSIG=
25005KT 190V330 9999 FEW043 SCT250 23/10 Q1018
VRB04KT 9999 FEW043 SCT250 23/08 Q1018 NOSIG=
27005KT 220V340 9999 FEW036 SCT250 23/09 Q1018
32005KT 250V010 9999 FEW036 SCT250 23/09 Q1018
32005KT 290V040 9999 FEW036 SCT250 22/09 Q1019
VRB05KT 9999 FEW036 SCT250 22/10 Q1019 NOSIG=
VRB03KT 9999 FEW033 SCT250 22/09 Q1019 NOSIG=
VRB03KT 9999 FEW033 21/09 Q1019 NOSIG=
02003KT 350V090 CAVOK 21/08 Q1019 NOSIG=
VRB03KT CAVOK 20/09 Q1019 NOSIG=
VRB02KT 9999 FEW020 20/10 Q1019 NOSIG=
VRB03KT 9999 FEW020 19/09 Q1019 NOSIG=
VRB02KT 9999 FEW013 18/11 Q1019 NOSIG=
VRB03KT 9999 FEW010 17/11 Q1020 NOSIG=
34003KT 270V040 9999 FEW008 16/11 Q1020 NOSIG=
32004KT 290V020 CAVOK 15/12 Q1020 NOSIG=
VRB03KT CAVOK 14/12 Q1019 NOSIG=
VRB02KT CAVOK 13/12 Q1019 NOSIG=
32002KT CAVOK 11/11 Q1019 NOSIG=
29002KT 9999 MIFG NSC 11/11 Q1019 NOSIG=
VRB03KT 9999 MIFG NSC 11/10 Q1019 NOSIG=
00000KT CAVOK 11/11 Q1018 NOSIG=
VRB01KT CAVOK 12/11 Q1018 NOSIG=
28002KT CAVOK 12/11 Q1018 NOSIG=
AUTO 28003KT 250V310 9999 NSC 12/11 Q1019=
AUTO 27003KT 9999 NSC 12/11 Q1019=
AUTO 26002KT 9999 NSC 11/10 Q1019=
AUTO 25003KT 9999 NSC 11/10 Q1019=
AUTO 28003KT 9999 NSC 12/11 Q1019=
26002KT CAVOK 12/11 Q1019 NOSIG=
27004KT CAVOK 12/11 Q1019 NOSIG=
27003KT CAVOK 13/11 Q1019 NOSIG=
27003KT CAVOK 13/11 Q1019 NOSIG=
27004KT CAVOK 13/11 Q1019 NOSIG=
27004KT CAVOK 13/11 Q1019 NOSIG=

NOSIG=
NOSIG=
NOSIG=
NOSIG= 

      
 
  

!   "#$!%%
Raw surface observations for station LFRS
LFRS 262100Z
LFRS 262030Z
LFRS 262000Z
LFRS 261930Z
LFRS 261900Z
LFRS 261830Z
LFRS 261800Z
LFRS 261730Z
LFRS 261700Z
LFRS 261630Z
LFRS 261600Z
LFRS 261530Z
LFRS 261500Z
LFRS 261430Z
LFRS 261400Z
LFRS 261330Z
LFRS 261300Z
LFRS 261230Z
LFRS 261200Z
LFRS 261130Z
LFRS 261100Z
LFRS 261030Z
LFRS 261000Z
LFRS 260930Z
LFRS 260900Z
LFRS 260830Z
LFRS 260800Z
LFRS 260730Z
LFRS 260700Z
LFRS 260630Z
LFRS 260600Z
LFRS 260530Z
NOSIG=
LFRS 260500Z
LFRS 260430Z
LFRS 260400Z
LFRS 260330Z
LFRS 260300Z
LFRS 260230Z
LFRS 260200Z
Q1021=
LFRS 260130Z
LFRS 260100Z
Q1021=
LFRS 260030Z
LFRS 260000Z
LFRS 252330Z
LFRS 252300Z
LFRS 252230Z
LFRS 252200Z
LFRS 252130Z
LFRS 252100Z

33001KT
34001KT
VRB02KT
31004KT
29005KT
27003KT
26004KT
22003KT
VRB02KT
27005KT
VRB03KT
26004KT
29004KT
28005KT
27005KT
26005KT
28006KT
26005KT
24004KT
21005KT
22006KT
VRB03KT
25004KT
24004KT
26004KT
27006KT
27004KT
25004KT
26004KT
24005KT
24004KT
25005KT

CAVOK 19/18 Q1022 NOSIG=
CAVOK 20/18 Q1022 NOSIG=
9999 FEW026 21/18 Q1022 NOSIG=
9999 FEW025 23/18 Q1022 NOSIG=
9999 FEW025 24/18 Q1022 NOSIG=
240V310 9999 FEW024 25/18 Q1022 NOSIG=
210V300 9999 SCT024 24/18 Q1022 NOSIG=
180V250 9999 SCT025 23/18 Q1022 NOSIG=
9999 BKN027 24/19 Q1022 NOSIG=
230V320 9999 SCT024 SCT028 24/19 Q1022 NOSIG=
9999 SCT024 SCT031 24/18 Q1023 NOSIG=
200V300 9999 SCT022 SCT030 24/19 Q1023 NOSIG=
240V340 9999 SCT023 BKN030 24/19 Q1023 NOSIG=
240V310 9999 BKN021 SCT030 23/18 Q1023 NOSIG=
240V310 9999 BKN020 SCT029 23/18 Q1023 NOSIG=
9999 BKN020 23/19 Q1023 NOSIG=
9999 BKN020 23/18 Q1023 NOSIG=
180V290 9999 BKN023 23/18 Q1023 NOSIG=
180V270 9999 BKN020 22/19 Q1023 NOSIG=
170V250 9999 BKN025 23/18 Q1023 NOSIG=
180V250 9999 BKN016 22/18 Q1023 NOSIG=
9999 BKN012 21/19 Q1023 NOSIG=
190V300 9999 BKN009 SCT025 21/18 Q1023 NOSIG=
190V270 9999 BKN008 19/18 Q1023 NOSIG=
230V310 9999 BKN007 18/18 Q1023 NOSIG=
8000 OVC005 17/17 Q1023 NOSIG=
230V300 7000 OVC005 17/17 Q1023 NOSIG=
220V290 8000 OVC003 17/16 Q1023 NOSIG=
230V290 4500 BR OVC003 16/16 Q1023 NOSIG=
200V270 1500 BR OVC002 16/16 Q1023 NOSIG=
210V280 2000 BR OVC002 16/15 Q1022 NOSIG=
220V290 1000 R03/1800U R21/P2000 BR OVC002 15/15 Q1022

23006KT 1000 R03/P2000 R21/1700U BR OVC002 15/15 Q1022 NOSIG=
25005KT 200V280 2500 BR OVC003 15/15 Q1022 NOSIG=
24006KT 2500 BR OVC002 15/15 Q1022 NOSIG=
25006KT 220V280 1500 BR OVC003 15/15 Q1022 NOSIG=
25006KT 220V280 2500 BR OVC002 16/15 Q1022 NOSIG=
AUTO 24006KT 210V280 1600 BR OVC002 16/15 Q1021=
AUTO 24005KT 200V270 1200 R03/P2000 R21/P2000 BR OVC003 16/15
AUTO 24005KT 210V270 0900 R03/P2000 R21/1700U FG VV/// 16/15 Q1021=
AUTO 23006KT 0550 0500 R03/1400VP2000D R21/1800N FG VV/// 16/15
AUTO 25007KT 1000 R03/P2000 R21/2000D BCFG VV/// 15/15 Q1021=
24006KT 210V320 2500 BR OVC003 15/15 Q1021 NOSIG=
24006KT 210V270 2500 -DZ OVC002 15/15 Q1022 NOSIG=
25007KT 5000 -DZ OVC003 15/15 Q1022 TEMPO OVC002=
23008KT 200V260 5000 -DZ OVC003 16/15 Q1021 TEMPO OVC002=
25006KT 220V280 3500 -DZ OVC003 16/16 Q1022 TEMPO OVC002=
24006KT 4000 -DZ OVC003 16/16 Q1022 TEMPO 4000 -DZ OVC002=
24007KT 8000 OVC003 16/16 Q1021 TEMPO 4000 -DZ= 

 

Raw surface observations for station LFRS
Survol du centre ville imposé avec QFU21 utilisé
LFRS 202100Z
LFRS 202030Z
LFRS 202000Z
NOSIG=
LFRS 201930Z
Q1014 NOSIG=
LFRS 201900Z
NOSIG=
LFRS 201830Z
LFRS 201800Z
LFRS 201730Z
LFRS 201700Z
LFRS 201630Z
NOSIG=
LFRS 201600Z
LFRS 201530Z
LFRS 201500Z
LFRS 201430Z
LFRS 201400Z
LFRS 201330Z
NOSIG=
LFRS 201300Z
LFRS 201230Z
LFRS 201200Z
LFRS 201130Z
LFRS 201100Z
LFRS 201030Z
LFRS 201000Z
LFRS 200930Z
LFRS 200900Z
LFRS 200830Z
LFRS 200800Z
LFRS 200730Z
LFRS 200700Z
LFRS 200630Z
LFRS 200600Z
LFRS 200530Z
LFRS 200500Z
LFRS 200430Z
LFRS 200400Z
LFRS 200330Z
LFRS 200300Z
LFRS 200230Z
LFRS 200200Z
LFRS 200130Z
LFRS 200100Z

09004KT CAVOK 12/09 Q1014 NOSIG=
09004KT 050V110 CAVOK 12/09 Q1014 NOSIG=
09005KT 9999 FEW041 SCT250 12/09 Q1014
09005KT 040V120 9999 BKN043 SCT250 13/10
07003KT 9999 BKN049 BKN250 13/09 Q1014
07003KT
09005KT
08007KT
09008KT
09007KT

9999
9999
9999
9999
9999

BKN046
BKN043
BKN043
BKN040
SCT042

13/09 Q1014 NOSIG=
14/09 Q1014 NOSIG=
14/09 Q1014 NOSIG=
14/09 Q1014 NOSIG=
SCT250 14/09 Q1014

09008KT
08009KT
09004KT
09007KT
09008KT
10009KT

CAVOK 15/09 Q1014 NOSIG=
CAVOK 15/09 Q1014 NOSIG=
CAVOK 16/09 Q1014 NOSIG=
CAVOK 17/10 Q1014 NOSIG=
040V100 CAVOK 17/09 Q1014 NOSIG=
9999 FEW030 SCT250 17/10 Q1015

11010KT 060V140 CAVOK 17/10 Q1015 NOSIG=
09009KT 040V120 CAVOK 16/10 Q1015 NOSIG=
09008KT 050V130 CAVOK 16/10 Q1016 NOSIG=
08007KT CAVOK 15/10 Q1016 NOSIG=
08005KT CAVOK 14/10 Q1016 NOSIG=
08006KT CAVOK 13/09 Q1017 NOSIG=
06006KT CAVOK 12/09 Q1017 NOSIG=
06005KT CAVOK 10/08 Q1017 NOSIG=
06004KT 020V090 CAVOK 10/08 Q1017 NOSIG=
05004KT 020V090 7000 NSC 09/08 Q1017 NOSIG=
05003KT 010V080 7000 NSC 08/07 Q1016 NOSIG=
05004KT 010V080 8000 NSC 07/07 Q1016 NOSIG=
VRB03KT 8000 NSC 08/07 Q1016 NOSIG=
VRB02KT 8000 NSC 08/07 Q1016 NOSIG=
06003KT 8000 NSC 07/07 Q1016 NOSIG=
VRB02KT 8000 NSC 08/07 Q1016 NOSIG=
VRB02KT 8000 NSC 08/07 Q1016 NOSIG=
VRB03KT 8000 NSC 08/07 Q1015 NOSIG=
AUTO VRB03KT 9000 NSC 08/07 Q1015=
AUTO 05003KT 9999 NSC 08/07 Q1015=
AUTO VRB02KT 9999 NSC 09/08 Q1015=
AUTO 07003KT 030V110 9999 NSC 09/08 Q1015=
AUTO 08005KT 9999 NSC 09/08 Q1015=
AUTO 08005KT 9999 NSC 09/08 Q1015=
08005KT CAVOK 09/08 Q1015 NOSIG=

LFRS
LFRS
LFRS
LFRS
LFRS
LFRS
LFRS
LFRS

200030Z
200000Z
192330Z
192300Z
192230Z
192200Z
192130Z
192100Z

08006KT
08006KT
08005KT
08006KT
08005KT
10007KT
10007KT
09007KT

CAVOK 10/08 Q1015 NOSIG=
CAVOK 10/08 Q1015 NOSIG=
CAVOK 10/08 Q1015 NOSIG=
030V090 CAVOK 10/08 Q1015 NOSIG=
CAVOK 10/08 Q1015 NOSIG=
CAVOK 10/08 Q1015 NOSIG=
CAVOK 11/08 Q1015 NOSIG=
CAVOK 11/08 Q1015 NOSIG=

LFRS NANTES/ATLANTIQUE -- FR
Raw surface observations for station LFRS
Relevé METAR du 04 décembre 2012

QFU 21 utilsé quasiment toute la journée

LFRS 050830Z 28007KT CAVOK 05/03 Q1009 NOSIG=
LFRS 050800Z 29006KT 9999 FEW030 04/03 Q1008 NOSIG=
LFRS 050730Z 29006KT 9999 FEW030 04/03 Q1008 NOSIG=
LFRS 050700Z 27004KT CAVOK 03/02 Q1007 NOSIG=
LFRS 050630Z 26004KT CAVOK 03/03 Q1007 NOSIG=
LFRS 050600Z 23004KT CAVOK 03/02 Q1007 NOSIG=
LFRS 050530Z 23005KT 9999 FEW040 03/02 Q1007 NOSIG=
LFRS 050500Z 22004KT 9999 FEW040 SCT200 03/02 Q1007 NOSIG=
LFRS 050430Z 23005KT 200V260 9999 FEW040 BKN200 04/03 Q1007 NOSIG=
LFRS 050400Z 24005KT 9999 FEW040 SCT066 04/03 Q1007 NOSIG=
LFRS 050330Z AUTO 27005KT 210V320 9999 -RA FEW032/// BKN041/// OVC052///
//////TCU 04/03 Q1007=
LFRS 050300Z AUTO 21005KT 9999 NSC 03/02 Q1007=
LFRS 050230Z AUTO 22005KT 9999 NSC 03/02 Q1008=
LFRS 050200Z AUTO 22005KT 9999 NSC 03/02 Q1008=
LFRS 050130Z AUTO 23005KT 9999 NSC 02/01 Q1008=
LFRS 050100Z 25004KT 9999 FEW033 03/01 Q1009 NOSIG=
LFRS 050030Z 28006KT 9999 FEW033 04/02 Q1009 NOSIG=
LFRS 050000Z 27005KT 9999 FEW033 03/02 Q1009 NOSIG=
LFRS 042330Z 24006KT 9999 FEW033 03/01 Q1009 NOSIG=
LFRS 042300Z 24004KT 9999 FEW033 03/01 Q1009 NOSIG=
LFRS 042230Z 25006KT 9999 FEW033 SCT100 03/01 Q1009 NOSIG=
LFRS 042200Z 25003KT 9999 FEW033 SCT100 04/02 Q1010 NOSIG=
LFRS 042130Z 25005KT 9999 FEW036 SCT140 04/01 Q1010 NOSIG=
LFRS 042100Z 26004KT 9999 FEW036 SCT140 05/02 Q1010 NOSIG=
LFRS 042030Z 28005KT 9999 FEW036 05/02 Q1010 NOSIG=
LFRS 042000Z 26005KT 9999 FEW036 04/02 Q1010 NOSIG=
LFRS 041930Z 23004KT 9999 FEW036 04/01 Q1011 NOSIG=
LFRS 041900Z 26005KT 9999 FEW040 BKN210 05/01 Q1011 NOSIG=
LFRS 041830Z 28007KT 9999 FEW043 BKN210 06/02 Q1011 NOSIG=
LFRS 041800Z 29007KT 9999 FEW043 BKN210 07/02 Q1011 NOSIG=
LFRS 041730Z 27006KT 240V310 9999 FEW036 SCT210 06/03 Q1011 NOSIG=
LFRS 041700Z 27006KT 9999 FEW036 SCT110 07/03 Q1011 NOSIG=
LFRS 041630Z 28009KT 9999 FEW036 SCT110 08/03 Q1011 NOSIG=
LFRS 041600Z 28011KT 9999 FEW036 SCT100 08/03 Q1012 NOSIG=
LFRS 041530Z 28010KT 9999 FEW036 SCT100 08/03 Q1012 NOSIG=
LFRS 041500Z 28011KT 250V310 9999 FEW036 SCT100 09/04 Q1012 NOSIG=
LFRS 041430Z 26008KT 230V300 9999 FEW036 SCT130 09/04 Q1012 NOSIG=
LFRS 041400Z 31013KT 280V350 9999 SCT036 SCT130 09/03 Q1013 NOSIG=
LFRS 041330Z 30013KT 9999 SCT033 SCT130 10/03 Q1013 NOSIG=
LFRS 041300Z 29015KT 260V320 9999 FEW033 11/04 Q1013 NOSIG=
LFRS 041230Z 29013KT 9999 FEW033 10/03 Q1013 NOSIG=
LFRS 041200Z 30014KT 260V330 9999 FEW033 10/04 Q1014 NOSIG=
LFRS 041130Z 29011KT 9999 FEW029TCU 10/04 Q1014 NOSIG=
LFRS 041100Z 30014KT 260V330 9999 FEW020 10/05 Q1014 NOSIG=
LFRS 041030Z 29013KT 9999 FEW020 09/04 Q1014 NOSIG=
LFRS 041000Z 29010KT 9999 FEW020 09/04 Q1014 NOSIG=
LFRS 040930Z 29009KT 9999 FEW020 SCT210 08/04 Q1014 NOSIG=
LFRS 040900Z 29011KT 250V320 9999 FEW020 SCT210 07/03 Q1014 NOSIG=
LFRS 040830Z 28009KT 9999 FEW026 SCT210 07/03 Q1014 NOSIG=
LFRS 040800Z 27005KT CAVOK 05/02 Q1013 NOSIG=

Sign up to vote on this title
UsefulNot useful